sensor_id;sensor_type;location;lat;lon;timestamp;P1;durP1;ratioP1;P2;durP2;ratioP2
69956;SDS011;57283;54.816;9.482;2022-10-22T00:01:33;17.75;;;10.15;;
69956;SDS011;57283;54.816;9.482;2022-10-22T00:04:01;18.17;;;9.32;;
69956;SDS011;57283;54.816;9.482;2022-10-22T00:06:29;21.95;;;9.57;;
69956;SDS011;57283;54.816;9.482;2022-10-22T00:08:57;16.20;;;9.40;;
69956;SDS011;57283;54.816;9.482;2022-10-22T00:11:25;17.17;;;9.20;;
69956;SDS011;57283;54.816;9.482;2022-10-22T00:13:52;19.42;;;10.38;;
69956;SDS011;57283;54.816;9.482;2022-10-22T00:16:20;18.17;;;9.90;;
69956;SDS011;57283;54.816;9.482;2022-10-22T00:18:49;17.08;;;9.57;;
69956;SDS011;57283;54.816;9.482;2022-10-22T00:21:17;17.95;;;9.35;;
69956;SDS011;57283;54.816;9.482;2022-10-22T00:23:45;19.03;;;9.90;;
69956;SDS011;57283;54.816;9.482;2022-10-22T00:26:12;21.33;;;9.73;;
69956;SDS011;57283;54.816;9.482;2022-10-22T00:28:40;18.23;;;9.95;;
69956;SDS011;57283;54.816;9.482;2022-10-22T00:31:08;17.85;;;9.32;;
69956;SDS011;57283;54.816;9.482;2022-10-22T00:33:36;18.17;;;9.63;;
69956;SDS011;57283;54.816;9.482;2022-10-22T00:36:05;19.77;;;10.07;;
69956;SDS011;57283;54.816;9.482;2022-10-22T00:38:34;20.13;;;10.48;;
69956;SDS011;57283;54.816;9.482;2022-10-22T00:41:01;17.00;;;8.43;;
69956;SDS011;57283;54.816;9.482;2022-10-22T00:43:29;20.70;;;9.95;;
69956;SDS011;57283;54.816;9.482;2022-10-22T00:45:57;18.45;;;9.40;;
69956;SDS011;57283;54.816;9.482;2022-10-22T00:48:26;19.03;;;9.43;;
69956;SDS011;57283;54.816;9.482;2022-10-22T00:50:56;18.08;;;8.98;;
69956;SDS011;57283;54.816;9.482;2022-10-22T00:53:30;19.20;;;9.18;;
69956;SDS011;57283;54.816;9.482;2022-10-22T00:55:59;17.83;;;9.57;;
69956;SDS011;57283;54.816;9.482;2022-10-22T00:58:28;18.98;;;10.00;;
69956;SDS011;57283;54.816;9.482;2022-10-22T01:01:01;17.93;;;9.40;;
69956;SDS011;57283;54.816;9.482;2022-10-22T01:03:29;19.20;;;9.95;;
69956;SDS011;57283;54.816;9.482;2022-10-22T01:05:58;19.00;;;9.88;;
69956;SDS011;57283;54.816;9.482;2022-10-22T01:08:31;21.05;;;9.70;;
69956;SDS011;57283;54.816;9.482;2022-10-22T01:11:07;20.80;;;9.48;;
69956;SDS011;57283;54.816;9.482;2022-10-22T01:13:47;20.60;;;9.67;;
69956;SDS011;57283;54.816;9.482;2022-10-22T01:16:20;19.08;;;10.02;;
69956;SDS011;57283;54.816;9.482;2022-10-22T01:18:55;20.83;;;10.18;;
69956;SDS011;57283;54.816;9.482;2022-10-22T01:21:30;19.05;;;9.70;;
69956;SDS011;57283;54.816;9.482;2022-10-22T01:24:24;18.15;;;9.73;;
69956;SDS011;57283;54.816;9.482;2022-10-22T01:27:08;19.57;;;9.70;;
69956;SDS011;57283;54.816;9.482;2022-10-22T01:29:43;19.95;;;9.80;;
69956;SDS011;57283;54.816;9.482;2022-10-22T01:32:15;23.48;;;10.45;;
69956;SDS011;57283;54.816;9.482;2022-10-22T01:34:45;21.08;;;9.80;;
69956;SDS011;57283;54.816;9.482;2022-10-22T01:37:18;21.75;;;10.45;;
69956;SDS011;57283;54.816;9.482;2022-10-22T01:39:50;20.67;;;9.70;;
69956;SDS011;57283;54.816;9.482;2022-10-22T01:42:19;22.05;;;9.65;;
69956;SDS011;57283;54.816;9.482;2022-10-22T01:44:48;20.02;;;10.57;;
69956;SDS011;57283;54.816;9.482;2022-10-22T01:47:18;20.05;;;9.52;;
69956;SDS011;57283;54.816;9.482;2022-10-22T01:53:06;20.13;;;10.30;;
69956;SDS011;57283;54.816;9.482;2022-10-22T01:55:47;20.70;;;9.43;;
69956;SDS011;57283;54.816;9.482;2022-10-22T01:58:26;21.65;;;10.10;;
69956;SDS011;57283;54.816;9.482;2022-10-22T02:01:04;22.45;;;10.68;;
69956;SDS011;57283;54.816;9.482;2022-10-22T02:03:37;19.02;;;9.90;;
69956;SDS011;57283;54.816;9.482;2022-10-22T02:06:13;22.67;;;10.70;;
69956;SDS011;57283;54.816;9.482;2022-10-22T02:08:46;19.70;;;10.38;;
69956;SDS011;57283;54.816;9.482;2022-10-22T02:11:16;19.48;;;9.65;;
69956;SDS011;57283;54.816;9.482;2022-10-22T02:13:45;18.35;;;10.30;;
69956;SDS011;57283;54.816;9.482;2022-10-22T02:16:18;19.27;;;9.52;;
69956;SDS011;57283;54.816;9.482;2022-10-22T02:18:51;18.73;;;9.17;;
69956;SDS011;57283;54.816;9.482;2022-10-22T02:21:21;19.10;;;10.07;;
69956;SDS011;57283;54.816;9.482;2022-10-22T02:23:50;20.92;;;10.25;;
69956;SDS011;57283;54.816;9.482;2022-10-22T02:26:18;21.85;;;9.88;;
69956;SDS011;57283;54.816;9.482;2022-10-22T02:28:53;25.05;;;10.23;;
69956;SDS011;57283;54.816;9.482;2022-10-22T02:31:27;22.37;;;10.07;;
69956;SDS011;57283;54.816;9.482;2022-10-22T02:33:59;24.27;;;10.15;;
69956;SDS011;57283;54.816;9.482;2022-10-22T02:36:33;21.83;;;9.80;;
69956;SDS011;57283;54.816;9.482;2022-10-22T02:39:01;19.90;;;10.07;;
69956;SDS011;57283;54.816;9.482;2022-10-22T02:41:29;20.75;;;10.23;;
69956;SDS011;57283;54.816;9.482;2022-10-22T02:43:57;22.90;;;10.03;;
69956;SDS011;57283;54.816;9.482;2022-10-22T02:46:28;22.23;;;10.52;;
69956;SDS011;57283;54.816;9.482;2022-10-22T02:48:56;22.23;;;10.60;;
69956;SDS011;57283;54.816;9.482;2022-10-22T02:51:24;21.35;;;10.25;;
69956;SDS011;57283;54.816;9.482;2022-10-22T02:53:51;23.85;;;11.13;;
69956;SDS011;57283;54.816;9.482;2022-10-22T02:56:19;22.57;;;10.87;;
69956;SDS011;57283;54.816;9.482;2022-10-22T02:58:47;28.23;;;11.20;;
69956;SDS011;57283;54.816;9.482;2022-10-22T03:01:14;23.45;;;10.23;;
69956;SDS011;57283;54.816;9.482;2022-10-22T03:03:44;26.85;;;11.85;;
69956;SDS011;57283;54.816;9.482;2022-10-22T03:06:11;25.27;;;10.40;;
69956;SDS011;57283;54.816;9.482;2022-10-22T03:08:39;22.40;;;10.37;;
69956;SDS011;57283;54.816;9.482;2022-10-22T03:11:07;24.63;;;11.52;;
69956;SDS011;57283;54.816;9.482;2022-10-22T03:13:36;25.05;;;12.07;;
69956;SDS011;57283;54.816;9.482;2022-10-22T03:16:04;26.20;;;11.48;;
69956;SDS011;57283;54.816;9.482;2022-10-22T03:18:32;24.98;;;11.10;;
69956;SDS011;57283;54.816;9.482;2022-10-22T03:21:03;25.57;;;11.67;;
69956;SDS011;57283;54.816;9.482;2022-10-22T03:23:36;26.65;;;12.43;;
69956;SDS011;57283;54.816;9.482;2022-10-22T03:26:06;27.40;;;11.60;;
69956;SDS011;57283;54.816;9.482;2022-10-22T03:28:35;25.17;;;11.45;;
69956;SDS011;57283;54.816;9.482;2022-10-22T03:31:04;25.83;;;11.60;;
69956;SDS011;57283;54.816;9.482;2022-10-22T03:33:32;24.23;;;11.50;;
69956;SDS011;57283;54.816;9.482;2022-10-22T03:36:02;26.40;;;12.25;;
69956;SDS011;57283;54.816;9.482;2022-10-22T03:38:30;25.27;;;11.60;;
69956;SDS011;57283;54.816;9.482;2022-10-22T03:40:57;26.70;;;12.82;;
69956;SDS011;57283;54.816;9.482;2022-10-22T03:43:25;25.35;;;12.00;;
69956;SDS011;57283;54.816;9.482;2022-10-22T03:45:53;26.40;;;12.03;;
69956;SDS011;57283;54.816;9.482;2022-10-22T03:48:21;28.00;;;12.18;;
69956;SDS011;57283;54.816;9.482;2022-10-22T03:50:49;24.38;;;11.27;;
69956;SDS011;57283;54.816;9.482;2022-10-22T03:53:18;28.98;;;12.02;;
69956;SDS011;57283;54.816;9.482;2022-10-22T03:55:46;28.30;;;12.63;;
69956;SDS011;57283;54.816;9.482;2022-10-22T03:58:13;28.20;;;12.33;;
69956;SDS011;57283;54.816;9.482;2022-10-22T04:00:41;32.20;;;12.35;;
69956;SDS011;57283;54.816;9.482;2022-10-22T04:03:09;30.63;;;12.82;;
69956;SDS011;57283;54.816;9.482;2022-10-22T04:05:37;30.35;;;12.88;;
69956;SDS011;57283;54.816;9.482;2022-10-22T04:08:04;28.27;;;11.80;;
69956;SDS011;57283;54.816;9.482;2022-10-22T04:10:33;27.90;;;12.47;;
69956;SDS011;57283;54.816;9.482;2022-10-22T04:13:01;28.85;;;12.30;;
69956;SDS011;57283;54.816;9.482;2022-10-22T04:15:29;25.33;;;11.88;;
69956;SDS011;57283;54.816;9.482;2022-10-22T04:17:58;32.92;;;11.65;;
69956;SDS011;57283;54.816;9.482;2022-10-22T04:20:25;29.05;;;11.65;;
69956;SDS011;57283;54.816;9.482;2022-10-22T04:22:53;28.00;;;11.90;;
69956;SDS011;57283;54.816;9.482;2022-10-22T04:25:21;40.75;;;12.18;;
69956;SDS011;57283;54.816;9.482;2022-10-22T04:27:50;28.33;;;11.80;;
69956;SDS011;57283;54.816;9.482;2022-10-22T04:30:18;26.65;;;11.95;;
69956;SDS011;57283;54.816;9.482;2022-10-22T04:32:46;36.97;;;12.60;;
69956;SDS011;57283;54.816;9.482;2022-10-22T04:35:13;27.67;;;10.30;;
69956;SDS011;57283;54.816;9.482;2022-10-22T04:37:41;27.73;;;10.73;;
69956;SDS011;57283;54.816;9.482;2022-10-22T04:40:10;24.10;;;10.38;;
69956;SDS011;57283;54.816;9.482;2022-10-22T04:42:38;44.78;;;11.93;;
69956;SDS011;57283;54.816;9.482;2022-10-22T04:45:08;33.65;;;10.80;;
69956;SDS011;57283;54.816;9.482;2022-10-22T04:47:36;32.93;;;10.37;;
69956;SDS011;57283;54.816;9.482;2022-10-22T04:50:05;22.48;;;10.20;;
69956;SDS011;57283;54.816;9.482;2022-10-22T04:52:33;33.15;;;10.73;;
69956;SDS011;57283;54.816;9.482;2022-10-22T04:55:01;28.23;;;10.25;;
69956;SDS011;57283;54.816;9.482;2022-10-22T04:57:28;43.45;;;10.52;;
69956;SDS011;57283;54.816;9.482;2022-10-22T04:59:57;38.37;;;10.10;;
69956;SDS011;57283;54.816;9.482;2022-10-22T05:02:26;38.10;;;10.75;;
69956;SDS011;57283;54.816;9.482;2022-10-22T05:04:54;28.25;;;10.57;;
69956;SDS011;57283;54.816;9.482;2022-10-22T05:07:21;38.63;;;10.48;;
69956;SDS011;57283;54.816;9.482;2022-10-22T05:09:49;31.42;;;10.20;;
69956;SDS011;57283;54.816;9.482;2022-10-22T05:12:17;22.13;;;10.30;;
69956;SDS011;57283;54.816;9.482;2022-10-22T05:14:45;23.67;;;9.88;;
69956;SDS011;57283;54.816;9.482;2022-10-22T05:17:12;31.65;;;10.60;;
69956;SDS011;57283;54.816;9.482;2022-10-22T05:19:42;29.55;;;10.88;;
69956;SDS011;57283;54.816;9.482;2022-10-22T05:22:09;27.98;;;10.55;;
69956;SDS011;57283;54.816;9.482;2022-10-22T05:24:37;28.57;;;11.70;;
69956;SDS011;57283;54.816;9.482;2022-10-22T05:27:05;34.10;;;10.35;;
69956;SDS011;57283;54.816;9.482;2022-10-22T05:29:33;25.75;;;10.25;;
69956;SDS011;57283;54.816;9.482;2022-10-22T05:32:01;24.10;;;10.63;;
69956;SDS011;57283;54.816;9.482;2022-10-22T05:34:30;28.52;;;10.27;;
69956;SDS011;57283;54.816;9.482;2022-10-22T05:36:59;35.97;;;10.40;;
69956;SDS011;57283;54.816;9.482;2022-10-22T05:39:27;24.63;;;9.57;;
69956;SDS011;57283;54.816;9.482;2022-10-22T05:41:55;57.08;;;11.38;;
69956;SDS011;57283;54.816;9.482;2022-10-22T05:44:23;27.70;;;10.25;;
69956;SDS011;57283;54.816;9.482;2022-10-22T05:46:51;25.17;;;10.52;;
69956;SDS011;57283;54.816;9.482;2022-10-22T05:49:19;25.30;;;10.73;;
69956;SDS011;57283;54.816;9.482;2022-10-22T05:51:46;37.83;;;9.82;;
69956;SDS011;57283;54.816;9.482;2022-10-22T05:54:16;19.30;;;8.63;;
69956;SDS011;57283;54.816;9.482;2022-10-22T05:56:47;28.63;;;10.10;;
69956;SDS011;57283;54.816;9.482;2022-10-22T05:59:15;24.15;;;10.00;;
69956;SDS011;57283;54.816;9.482;2022-10-22T06:01:43;29.33;;;10.20;;
69956;SDS011;57283;54.816;9.482;2022-10-22T06:04:11;26.13;;;10.70;;
69956;SDS011;57283;54.816;9.482;2022-10-22T06:06:41;32.78;;;10.07;;
69956;SDS011;57283;54.816;9.482;2022-10-22T06:09:12;20.23;;;9.93;;
69956;SDS011;57283;54.816;9.482;2022-10-22T06:11:44;26.90;;;9.80;;
69956;SDS011;57283;54.816;9.482;2022-10-22T06:14:12;23.30;;;10.47;;
69956;SDS011;57283;54.816;9.482;2022-10-22T06:16:41;25.50;;;8.95;;
69956;SDS011;57283;54.816;9.482;2022-10-22T06:19:09;27.08;;;9.70;;
69956;SDS011;57283;54.816;9.482;2022-10-22T06:21:41;18.88;;;9.18;;
69956;SDS011;57283;54.816;9.482;2022-10-22T06:24:10;23.70;;;9.52;;
69956;SDS011;57283;54.816;9.482;2022-10-22T06:26:38;27.73;;;9.93;;
69956;SDS011;57283;54.816;9.482;2022-10-22T06:29:07;24.67;;;9.48;;
69956;SDS011;57283;54.816;9.482;2022-10-22T06:31:35;23.45;;;8.98;;
69956;SDS011;57283;54.816;9.482;2022-10-22T06:34:03;34.60;;;8.98;;
69956;SDS011;57283;54.816;9.482;2022-10-22T06:36:32;24.30;;;9.57;;
69956;SDS011;57283;54.816;9.482;2022-10-22T06:39:00;28.80;;;8.33;;
69956;SDS011;57283;54.816;9.482;2022-10-22T06:41:29;30.08;;;9.30;;
69956;SDS011;57283;54.816;9.482;2022-10-22T06:43:57;24.70;;;7.95;;
69956;SDS011;57283;54.816;9.482;2022-10-22T06:46:29;33.60;;;9.23;;
69956;SDS011;57283;54.816;9.482;2022-10-22T06:48:58;38.83;;;9.98;;
69956;SDS011;57283;54.816;9.482;2022-10-22T06:51:27;27.03;;;9.43;;
69956;SDS011;57283;54.816;9.482;2022-10-22T06:53:56;45.28;;;11.68;;
69956;SDS011;57283;54.816;9.482;2022-10-22T06:56:25;30.30;;;8.75;;
69956;SDS011;57283;54.816;9.482;2022-10-22T06:58:54;22.77;;;9.20;;
69956;SDS011;57283;54.816;9.482;2022-10-22T07:01:24;31.33;;;9.52;;
69956;SDS011;57283;54.816;9.482;2022-10-22T07:03:54;22.37;;;10.07;;
69956;SDS011;57283;54.816;9.482;2022-10-22T07:06:23;39.47;;;10.77;;
69956;SDS011;57283;54.816;9.482;2022-10-22T07:08:52;26.65;;;9.02;;
69956;SDS011;57283;54.816;9.482;2022-10-22T07:11:21;31.95;;;10.32;;
69956;SDS011;57283;54.816;9.482;2022-10-22T07:13:50;21.20;;;9.45;;
69956;SDS011;57283;54.816;9.482;2022-10-22T07:16:20;20.40;;;9.63;;
69956;SDS011;57283;54.816;9.482;2022-10-22T07:18:54;30.17;;;10.85;;
69956;SDS011;57283;54.816;9.482;2022-10-22T07:21:22;24.33;;;10.18;;
69956;SDS011;57283;54.816;9.482;2022-10-22T07:23:51;27.10;;;9.65;;
69956;SDS011;57283;54.816;9.482;2022-10-22T07:26:19;38.03;;;10.32;;
69956;SDS011;57283;54.816;9.482;2022-10-22T07:28:47;23.47;;;9.47;;
69956;SDS011;57283;54.816;9.482;2022-10-22T07:31:15;21.02;;;10.15;;
69956;SDS011;57283;54.816;9.482;2022-10-22T07:33:43;27.42;;;10.13;;
69956;SDS011;57283;54.816;9.482;2022-10-22T07:36:14;23.88;;;10.40;;
69956;SDS011;57283;54.816;9.482;2022-10-22T07:38:43;30.30;;;10.57;;
69956;SDS011;57283;54.816;9.482;2022-10-22T07:41:12;25.20;;;9.50;;
69956;SDS011;57283;54.816;9.482;2022-10-22T07:43:41;27.67;;;10.15;;
69956;SDS011;57283;54.816;9.482;2022-10-22T07:46:09;32.78;;;11.52;;
69956;SDS011;57283;54.816;9.482;2022-10-22T07:48:37;28.88;;;10.77;;
69956;SDS011;57283;54.816;9.482;2022-10-22T07:51:05;21.83;;;10.00;;
69956;SDS011;57283;54.816;9.482;2022-10-22T07:53:34;22.83;;;9.77;;
69956;SDS011;57283;54.816;9.482;2022-10-22T07:56:02;21.02;;;9.85;;
69956;SDS011;57283;54.816;9.482;2022-10-22T07:58:30;39.10;;;11.25;;
69956;SDS011;57283;54.816;9.482;2022-10-22T08:00:59;28.65;;;11.30;;
69956;SDS011;57283;54.816;9.482;2022-10-22T08:03:28;22.15;;;10.45;;
69956;SDS011;57283;54.816;9.482;2022-10-22T08:05:56;36.90;;;16.03;;
69956;SDS011;57283;54.816;9.482;2022-10-22T08:08:24;57.50;;;18.42;;
69956;SDS011;57283;54.816;9.482;2022-10-22T08:10:58;24.60;;;10.00;;
69956;SDS011;57283;54.816;9.482;2022-10-22T08:13:27;23.65;;;9.95;;
69956;SDS011;57283;54.816;9.482;2022-10-22T08:15:56;19.95;;;10.18;;
69956;SDS011;57283;54.816;9.482;2022-10-22T08:18:25;23.90;;;11.47;;
69956;SDS011;57283;54.816;9.482;2022-10-22T08:20:53;21.60;;;10.85;;
69956;SDS011;57283;54.816;9.482;2022-10-22T08:23:21;22.02;;;11.13;;
69956;SDS011;57283;54.816;9.482;2022-10-22T08:25:53;24.40;;;9.80;;
69956;SDS011;57283;54.816;9.482;2022-10-22T08:28:23;29.23;;;10.40;;
69956;SDS011;57283;54.816;9.482;2022-10-22T08:30:50;23.67;;;9.77;;
69956;SDS011;57283;54.816;9.482;2022-10-22T08:33:18;19.77;;;10.00;;
69956;SDS011;57283;54.816;9.482;2022-10-22T08:35:46;19.23;;;10.60;;
69956;SDS011;57283;54.816;9.482;2022-10-22T08:38:15;17.65;;;9.60;;
69956;SDS011;57283;54.816;9.482;2022-10-22T08:40:43;16.40;;;9.05;;
69956;SDS011;57283;54.816;9.482;2022-10-22T08:43:31;21.23;;;9.90;;
69956;SDS011;57283;54.816;9.482;2022-10-22T08:46:10;24.67;;;9.48;;
69956;SDS011;57283;54.816;9.482;2022-10-22T08:48:53;19.92;;;9.00;;
69956;SDS011;57283;54.816;9.482;2022-10-22T08:51:23;24.38;;;9.98;;
69956;SDS011;57283;54.816;9.482;2022-10-22T08:54:03;51.63;;;24.73;;
69956;SDS011;57283;54.816;9.482;2022-10-22T08:56:40;44.47;;;20.67;;
69956;SDS011;57283;54.816;9.482;2022-10-22T08:59:13;79.38;;;31.80;;
69956;SDS011;57283;54.816;9.482;2022-10-22T09:01:44;50.15;;;24.95;;
69956;SDS011;57283;54.816;9.482;2022-10-22T09:04:15;19.70;;;11.35;;
69956;SDS011;57283;54.816;9.482;2022-10-22T09:06:51;20.52;;;12.52;;
69956;SDS011;57283;54.816;9.482;2022-10-22T09:09:20;24.20;;;12.47;;
69956;SDS011;57283;54.816;9.482;2022-10-22T09:11:50;18.08;;;8.88;;
69956;SDS011;57283;54.816;9.482;2022-10-22T09:14:20;20.98;;;11.73;;
69956;SDS011;57283;54.816;9.482;2022-10-22T09:17:01;17.70;;;8.50;;
69956;SDS011;57283;54.816;9.482;2022-10-22T09:19:40;15.27;;;8.52;;
69956;SDS011;57283;54.816;9.482;2022-10-22T09:22:23;16.10;;;8.93;;
69956;SDS011;57283;54.816;9.482;2022-10-22T09:25:01;28.17;;;8.80;;
69956;SDS011;57283;54.816;9.482;2022-10-22T09:27:40;17.00;;;9.55;;
69956;SDS011;57283;54.816;9.482;2022-10-22T09:30:12;17.35;;;8.50;;
69956;SDS011;57283;54.816;9.482;2022-10-22T09:32:42;19.17;;;8.85;;
69956;SDS011;57283;54.816;9.482;2022-10-22T09:35:11;19.73;;;9.27;;
69956;SDS011;57283;54.816;9.482;2022-10-22T09:37:47;19.40;;;10.32;;
69956;SDS011;57283;54.816;9.482;2022-10-22T09:40:16;23.10;;;12.93;;
69956;SDS011;57283;54.816;9.482;2022-10-22T09:42:45;25.77;;;13.18;;
69956;SDS011;57283;54.816;9.482;2022-10-22T09:45:22;17.75;;;8.82;;
69956;SDS011;57283;54.816;9.482;2022-10-22T09:48:01;16.87;;;8.77;;
69956;SDS011;57283;54.816;9.482;2022-10-22T09:50:38;14.23;;;8.32;;
69956;SDS011;57283;54.816;9.482;2022-10-22T09:53:13;17.70;;;8.98;;
69956;SDS011;57283;54.816;9.482;2022-10-22T09:55:48;16.23;;;9.05;;
69956;SDS011;57283;54.816;9.482;2022-10-22T09:58:18;16.48;;;9.35;;
69956;SDS011;57283;54.816;9.482;2022-10-22T10:00:50;16.83;;;9.43;;
69956;SDS011;57283;54.816;9.482;2022-10-22T10:03:22;17.45;;;8.57;;
69956;SDS011;57283;54.816;9.482;2022-10-22T10:05:52;16.23;;;8.77;;
69956;SDS011;57283;54.816;9.482;2022-10-22T10:08:25;19.00;;;10.10;;
69956;SDS011;57283;54.816;9.482;2022-10-22T10:10:54;21.42;;;10.02;;
69956;SDS011;57283;54.816;9.482;2022-10-22T10:13:32;16.93;;;8.93;;
69956;SDS011;57283;54.816;9.482;2022-10-22T10:16:19;17.98;;;8.95;;
69956;SDS011;57283;54.816;9.482;2022-10-22T10:19:02;15.50;;;8.13;;
69956;SDS011;57283;54.816;9.482;2022-10-22T10:21:45;14.07;;;8.05;;
69956;SDS011;57283;54.816;9.482;2022-10-22T10:24:20;16.15;;;8.30;;
69956;SDS011;57283;54.816;9.482;2022-10-22T10:26:55;17.50;;;9.83;;
69956;SDS011;57283;54.816;9.482;2022-10-22T10:29:33;15.88;;;8.80;;
69956;SDS011;57283;54.816;9.482;2022-10-22T10:32:21;16.52;;;8.73;;
69956;SDS011;57283;54.816;9.482;2022-10-22T10:34:59;16.73;;;8.45;;
69956;SDS011;57283;54.816;9.482;2022-10-22T10:37:42;16.23;;;8.85;;
69956;SDS011;57283;54.816;9.482;2022-10-22T10:40:18;17.83;;;8.97;;
69956;SDS011;57283;54.816;9.482;2022-10-22T10:42:54;14.93;;;9.20;;
69956;SDS011;57283;54.816;9.482;2022-10-22T10:45:29;17.08;;;8.57;;
69956;SDS011;57283;54.816;9.482;2022-10-22T10:48:08;16.98;;;9.00;;
69956;SDS011;57283;54.816;9.482;2022-10-22T10:50:55;14.57;;;8.50;;
69956;SDS011;57283;54.816;9.482;2022-10-22T10:53:35;19.23;;;9.07;;
69956;SDS011;57283;54.816;9.482;2022-10-22T10:56:19;15.40;;;9.18;;
69956;SDS011;57283;54.816;9.482;2022-10-22T10:59:06;15.85;;;9.02;;
69956;SDS011;57283;54.816;9.482;2022-10-22T11:01:41;13.85;;;8.52;;
69956;SDS011;57283;54.816;9.482;2022-10-22T11:04:37;14.75;;;9.00;;
69956;SDS011;57283;54.816;9.482;2022-10-22T11:07:16;14.40;;;8.20;;
69956;SDS011;57283;54.816;9.482;2022-10-22T11:10:02;14.13;;;8.13;;
69956;SDS011;57283;54.816;9.482;2022-10-22T11:12:37;14.93;;;8.48;;
69956;SDS011;57283;54.816;9.482;2022-10-22T11:15:11;13.85;;;8.32;;
69956;SDS011;57283;54.816;9.482;2022-10-22T11:17:49;13.38;;;8.07;;
69956;SDS011;57283;54.816;9.482;2022-10-22T11:20:23;12.83;;;8.13;;
69956;SDS011;57283;54.816;9.482;2022-10-22T11:22:58;14.30;;;8.90;;
69956;SDS011;57283;54.816;9.482;2022-10-22T11:25:48;13.98;;;8.48;;
69956;SDS011;57283;54.816;9.482;2022-10-22T11:28:18;16.08;;;8.23;;
69956;SDS011;57283;54.816;9.482;2022-10-22T11:30:53;14.93;;;9.13;;
69956;SDS011;57283;54.816;9.482;2022-10-22T11:33:27;13.37;;;9.30;;
69956;SDS011;57283;54.816;9.482;2022-10-22T11:36:07;10.88;;;8.65;;
69956;SDS011;57283;54.816;9.482;2022-10-22T11:38:36;14.48;;;8.82;;
69956;SDS011;57283;54.816;9.482;2022-10-22T11:41:11;11.15;;;8.55;;
69956;SDS011;57283;54.816;9.482;2022-10-22T11:43:52;11.68;;;8.65;;
69956;SDS011;57283;54.816;9.482;2022-10-22T11:46:26;9.83;;;8.00;;
69956;SDS011;57283;54.816;9.482;2022-10-22T11:49:03;9.60;;;7.50;;
69956;SDS011;57283;54.816;9.482;2022-10-22T11:51:43;10.93;;;8.63;;
69956;SDS011;57283;54.816;9.482;2022-10-22T11:54:29;9.77;;;8.00;;
69956;SDS011;57283;54.816;9.482;2022-10-22T11:57:15;10.15;;;7.60;;
69956;SDS011;57283;54.816;9.482;2022-10-22T11:59:47;10.53;;;7.80;;
69956;SDS011;57283;54.816;9.482;2022-10-22T12:02:22;10.52;;;7.82;;
69956;SDS011;57283;54.816;9.482;2022-10-22T12:08:23;10.23;;;7.00;;
69956;SDS011;57283;54.816;9.482;2022-10-22T12:11:03;10.45;;;6.40;;
69956;SDS011;57283;54.816;9.482;2022-10-22T12:13:54;9.93;;;7.37;;
69956;SDS011;57283;54.816;9.482;2022-10-22T12:16:38;11.30;;;8.00;;
69956;SDS011;57283;54.816;9.482;2022-10-22T12:19:28;10.07;;;7.38;;
69956;SDS011;57283;54.816;9.482;2022-10-22T12:21:58;9.82;;;7.53;;
69956;SDS011;57283;54.816;9.482;2022-10-22T12:24:39;11.90;;;7.57;;
69956;SDS011;57283;54.816;9.482;2022-10-22T12:27:16;10.73;;;7.30;;
69956;SDS011;57283;54.816;9.482;2022-10-22T12:29:48;9.35;;;7.22;;
69956;SDS011;57283;54.816;9.482;2022-10-22T12:32:21;9.57;;;8.20;;
69956;SDS011;57283;54.816;9.482;2022-10-22T12:34:49;10.80;;;7.05;;
69956;SDS011;57283;54.816;9.482;2022-10-22T12:37:18;10.30;;;7.25;;
69956;SDS011;57283;54.816;9.482;2022-10-22T12:39:47;11.67;;;8.20;;
69956;SDS011;57283;54.816;9.482;2022-10-22T12:42:16;12.35;;;8.20;;
69956;SDS011;57283;54.816;9.482;2022-10-22T12:44:44;10.93;;;7.65;;
69956;SDS011;57283;54.816;9.482;2022-10-22T12:47:12;10.23;;;6.78;;
69956;SDS011;57283;54.816;9.482;2022-10-22T12:49:44;12.82;;;8.38;;
69956;SDS011;57283;54.816;9.482;2022-10-22T12:52:15;10.43;;;7.23;;
69956;SDS011;57283;54.816;9.482;2022-10-22T12:54:48;10.80;;;7.28;;
69956;SDS011;57283;54.816;9.482;2022-10-22T12:57:18;9.82;;;6.65;;
69956;SDS011;57283;54.816;9.482;2022-10-22T12:59:47;10.73;;;7.00;;
69956;SDS011;57283;54.816;9.482;2022-10-22T13:02:18;10.55;;;6.85;;
69956;SDS011;57283;54.816;9.482;2022-10-22T13:05:03;10.77;;;7.50;;
69956;SDS011;57283;54.816;9.482;2022-10-22T13:07:42;11.60;;;7.13;;
69956;SDS011;57283;54.816;9.482;2022-10-22T13:10:16;11.73;;;6.80;;
69956;SDS011;57283;54.816;9.482;2022-10-22T13:12:50;11.20;;;6.82;;
69956;SDS011;57283;54.816;9.482;2022-10-22T13:15:21;8.30;;;6.10;;
69956;SDS011;57283;54.816;9.482;2022-10-22T13:18:04;10.03;;;5.77;;
69956;SDS011;57283;54.816;9.482;2022-10-22T13:20:49;11.60;;;4.45;;
69956;SDS011;57283;54.816;9.482;2022-10-22T13:23:21;8.50;;;4.80;;
69956;SDS011;57283;54.816;9.482;2022-10-22T13:25:59;7.28;;;3.88;;
69956;SDS011;57283;54.816;9.482;2022-10-22T13:28:29;9.18;;;4.20;;
69956;SDS011;57283;54.816;9.482;2022-10-22T13:30:59;8.27;;;3.47;;
69956;SDS011;57283;54.816;9.482;2022-10-22T13:33:29;8.10;;;3.75;;
69956;SDS011;57283;54.816;9.482;2022-10-22T13:36:02;7.25;;;3.80;;
69956;SDS011;57283;54.816;9.482;2022-10-22T13:38:30;7.93;;;3.40;;
69956;SDS011;57283;54.816;9.482;2022-10-22T13:41:00;6.43;;;2.97;;
69956;SDS011;57283;54.816;9.482;2022-10-22T13:43:53;8.37;;;3.67;;
69956;SDS011;57283;54.816;9.482;2022-10-22T13:46:25;8.05;;;4.05;;
69956;SDS011;57283;54.816;9.482;2022-10-22T13:48:54;8.43;;;4.53;;
69956;SDS011;57283;54.816;9.482;2022-10-22T13:51:24;9.52;;;4.95;;
69956;SDS011;57283;54.816;9.482;2022-10-22T13:53:57;9.13;;;5.13;;
69956;SDS011;57283;54.816;9.482;2022-10-22T13:56:27;11.53;;;5.73;;
69956;SDS011;57283;54.816;9.482;2022-10-22T13:58:54;9.73;;;5.80;;
69956;SDS011;57283;54.816;9.482;2022-10-22T14:01:23;12.43;;;6.72;;
69956;SDS011;57283;54.816;9.482;2022-10-22T14:03:53;10.98;;;6.30;;
69956;SDS011;57283;54.816;9.482;2022-10-22T14:06:24;9.90;;;6.20;;
69956;SDS011;57283;54.816;9.482;2022-10-22T14:08:58;14.03;;;6.70;;
69956;SDS011;57283;54.816;9.482;2022-10-22T14:11:29;12.57;;;7.35;;
69956;SDS011;57283;54.816;9.482;2022-10-22T14:13:58;9.65;;;6.20;;
69956;SDS011;57283;54.816;9.482;2022-10-22T14:16:26;14.25;;;6.95;;
69956;SDS011;57283;54.816;9.482;2022-10-22T14:18:56;12.00;;;6.85;;
69956;SDS011;57283;54.816;9.482;2022-10-22T14:21:25;13.27;;;7.27;;
69956;SDS011;57283;54.816;9.482;2022-10-22T14:23:56;10.07;;;6.38;;
69956;SDS011;57283;54.816;9.482;2022-10-22T14:26:24;13.95;;;6.50;;
69956;SDS011;57283;54.816;9.482;2022-10-22T14:28:57;12.43;;;6.88;;
69956;SDS011;57283;54.816;9.482;2022-10-22T14:31:41;13.02;;;6.50;;
69956;SDS011;57283;54.816;9.482;2022-10-22T14:34:10;13.10;;;6.43;;
69956;SDS011;57283;54.816;9.482;2022-10-22T14:36:39;14.32;;;6.93;;
69956;SDS011;57283;54.816;9.482;2022-10-22T14:39:09;11.20;;;6.45;;
69956;SDS011;57283;54.816;9.482;2022-10-22T14:41:37;11.20;;;5.97;;
69956;SDS011;57283;54.816;9.482;2022-10-22T14:44:07;12.75;;;6.47;;
69956;SDS011;57283;54.816;9.482;2022-10-22T14:46:38;12.20;;;6.00;;
69956;SDS011;57283;54.816;9.482;2022-10-22T14:49:07;12.77;;;5.68;;
69956;SDS011;57283;54.816;9.482;2022-10-22T14:51:35;10.90;;;5.43;;
69956;SDS011;57283;54.816;9.482;2022-10-22T14:54:03;13.18;;;5.90;;
69956;SDS011;57283;54.816;9.482;2022-10-22T14:56:31;10.02;;;5.38;;
69956;SDS011;57283;54.816;9.482;2022-10-22T14:58:59;10.63;;;5.97;;
69956;SDS011;57283;54.816;9.482;2022-10-22T15:01:28;10.88;;;6.03;;
69956;SDS011;57283;54.816;9.482;2022-10-22T15:03:56;12.57;;;6.07;;